Time;durP1;ratioP1;P1;durP2;ratioP2;P2;SDS_P1;SDS_P2;PMS_P1;PMS_P2;Temp;Humidity;BMP_temperature;BMP_pressure;BME280_temperature;BME280_humidity;BME280_pressure;Samples;Min_cycle;Max_cycle;Signal;HPM_P1;HPM_P2
2022/03/16 00:01:57;;;;;;;92.32;53.38;;;;;;;22.38;50.82;102813.31;5076201;28;20460;-59
2022/03/16 00:04:22;;;;;;;101.78;55.80;;;;;;;22.40;50.02;102816.78;5075874;28;20031;-59
2022/03/16 00:06:48;;;;;;;93.97;53.90;;;;;;;22.36;51.02;102809.88;5076157;28;20020;-59
2022/03/16 00:09:13;;;;;;;96.70;56.15;;;;;;;22.34;50.94;102809.16;5075347;28;20039;-60
2022/03/16 00:11:38;;;;;;;98.70;55.30;;;;;;;22.37;50.48;102811.59;5075789;28;20028;-60
2022/03/16 00:14:03;;;;;;;90.57;53.22;;;;;;;22.40;50.92;102811.28;5075916;28;20376;-59
2022/03/16 00:16:29;;;;;;;100.57;55.70;;;;;;;22.52;51.50;102806.47;5075725;28;20054;-60
2022/03/16 00:18:54;;;;;;;88.80;51.72;;;;;;;22.90;53.17;102810.91;5075805;28;20111;-60
2022/03/16 00:21:19;;;;;;;97.95;53.50;;;;;;;23.07;53.82;102810.06;5076239;28;20111;-59
2022/03/16 00:23:45;;;;;;;95.85;53.25;;;;;;;23.20;55.50;102815.16;5074528;28;20486;-59
2022/03/16 00:26:10;;;;;;;86.80;49.08;;;;;;;23.27;56.71;102816.25;5075591;28;20057;-60
2022/03/16 00:28:35;;;;;;;87.43;49.17;;;;;;;23.33;57.45;102820.25;5075586;28;20027;-59
2022/03/16 00:31:04;;;;;;;83.18;48.08;;;;;;;23.41;57.37;102820.34;5075270;28;20028;-60
2022/03/16 00:33:29;;;;;;;86.72;50.05;;;;;;;23.41;58.39;102823.09;5075464;28;20529;-59
2022/03/16 00:35:54;;;;;;;85.70;48.50;;;;;;;23.42;59.70;102822.06;5075502;28;20036;-59
2022/03/16 00:38:20;;;;;;;83.97;47.40;;;;;;;23.50;59.04;102821.25;5075677;28;20037;-59
2022/03/16 00:40:45;;;;;;;81.82;48.60;;;;;;;23.49;58.85;102831.38;5075475;28;20047;-59
2022/03/16 00:43:10;;;;;;;81.20;47.70;;;;;;;23.51;59.04;102829.31;5075203;28;20056;-59
2022/03/16 00:45:36;;;;;;;84.00;47.03;;;;;;;23.54;58.83;102826.28;5075569;28;20020;-60
2022/03/16 00:48:01;;;;;;;81.30;46.25;;;;;;;23.54;59.68;102829.03;5075250;28;20067;-59
2022/03/16 00:50:27;;;;;;;81.25;46.28;;;;;;;23.57;59.25;102828.75;5075002;28;20027;-59
2022/03/16 00:52:53;;;;;;;79.97;46.35;;;;;;;23.59;58.49;102834.06;5074878;28;20119;-60
2022/03/16 00:55:18;;;;;;;74.75;44.15;;;;;;;23.59;58.70;102843.19;5075022;28;20387;-60
2022/03/16 00:57:43;;;;;;;81.28;46.40;;;;;;;23.60;58.08;102839.41;5075199;28;20024;-59
2022/03/16 01:00:10;;;;;;;79.07;44.97;;;;;;;23.59;59.42;102837.69;5074750;28;20161;-60
2022/03/16 01:02:36;;;;;;;81.43;47.45;;;;;;;23.61;57.97;102838.38;5074963;28;20028;-60
2022/03/16 01:05:01;;;;;;;82.05;48.38;;;;;;;23.62;58.32;102844.75;5074985;28;20020;-60
2022/03/16 01:07:26;;;;;;;77.30;46.90;;;;;;;23.63;57.48;102844.56;5074723;28;20028;-60
2022/03/16 01:09:52;;;;;;;82.85;46.08;;;;;;;23.67;57.39;102843.22;5074641;28;20027;-60
2022/03/16 01:12:17;;;;;;;81.10;47.75;;;;;;;23.70;58.01;102847.56;5074705;28;20763;-60
2022/03/16 01:14:42;;;;;;;77.60;46.75;;;;;;;23.72;57.78;102855.66;5074845;28;20016;-59
2022/03/16 01:17:08;;;;;;;75.85;44.78;;;;;;;23.75;57.41;102858.94;5074691;28;20032;-59
2022/03/16 01:19:34;;;;;;;81.00;45.88;;;;;;;23.77;57.26;102861.50;5074947;28;20460;-60
2022/03/16 01:22:01;;;;;;;75.63;44.80;;;;;;;23.77;56.78;102853.28;5075086;28;20028;-59
2022/03/16 01:24:27;;;;;;;77.40;44.85;;;;;;;23.77;56.60;102856.03;5074319;28;20111;-59
2022/03/16 01:26:52;;;;;;;75.68;44.10;;;;;;;23.75;56.16;102858.06;5074549;28;20258;-61
2022/03/16 01:29:17;;;;;;;77.32;45.97;;;;;;;23.79;56.35;102853.97;5074084;28;20059;-59
2022/03/16 01:31:42;;;;;;;76.75;46.50;;;;;;;23.81;55.87;102862.91;5074047;28;20047;-59
2022/03/16 01:34:08;;;;;;;71.28;43.17;;;;;;;23.80;55.66;102859.31;5074474;28;20396;-60
2022/03/16 01:36:33;;;;;;;75.63;44.92;;;;;;;23.83;55.65;102849.88;5074250;28;20098;-59
2022/03/16 01:38:58;;;;;;;73.50;44.70;;;;;;;23.82;55.14;102848.16;5074342;28;20475;-59
2022/03/16 01:41:24;;;;;;;80.03;44.53;;;;;;;23.86;55.37;102844.09;5074033;28;20032;-60
2022/03/16 01:43:53;;;;;;;73.47;46.00;;;;;;;23.84;54.77;102851.59;5074342;28;20487;-59
2022/03/16 01:46:20;;;;;;;76.75;45.47;;;;;;;23.87;55.28;102851.31;5074064;28;20016;-60
2022/03/16 01:48:45;;;;;;;75.70;45.53;;;;;;;23.90;55.32;102851.84;5074122;28;20024;-59
2022/03/16 01:51:11;;;;;;;72.40;44.97;;;;;;;23.90;55.19;102845.50;5073854;28;20020;-59
2022/03/16 01:53:36;;;;;;;85.00;48.55;;;;;;;23.89;55.61;102852.00;5074303;28;20498;-60
2022/03/16 01:56:01;;;;;;;80.07;46.38;;;;;;;23.91;54.75;102852.72;5074114;28;20080;-60
2022/03/16 01:58:26;;;;;;;78.82;46.53;;;;;;;23.93;54.76;102851.53;5073506;28;20042;-59
2022/03/16 02:00:52;;;;;;;77.30;44.20;;;;;;;23.94;54.85;102846.88;5073434;28;20023;-59
2022/03/16 02:03:17;;;;;;;73.82;44.80;;;;;;;23.96;54.52;102855.81;5073747;28;20043;-59
2022/03/16 02:05:42;;;;;;;78.85;45.03;;;;;;;23.95;55.23;102849.47;5073903;28;20028;-59
2022/03/16 02:08:10;;;;;;;76.93;46.00;;;;;;;23.95;54.04;102849.47;5073279;28;20161;-60
2022/03/16 02:10:36;;;;;;;75.53;44.35;;;;;;;23.95;54.77;102845.84;5072924;28;20063;-59
2022/03/16 02:13:02;;;;;;;82.75;47.63;;;;;;;23.97;54.40;102838.31;5073681;28;20103;-60
2022/03/16 02:15:27;;;;;;;80.22;46.42;;;;;;;23.98;55.23;102842.78;5073491;28;20118;-59
2022/03/16 02:17:55;;;;;;;80.97;47.67;;;;;;;23.96;55.13;102847.59;5073657;28;20107;-59
2022/03/16 02:20:21;;;;;;;80.43;46.47;;;;;;;23.99;54.74;102850.88;5072687;28;20020;-59
2022/03/16 02:22:57;;;;;;;76.85;45.20;;;;;;;23.99;55.41;102855.50;5073608;28;20033;-59
2022/03/16 02:25:24;;;;;;;80.80;46.53;;;;;;;24.01;54.84;102859.81;5073257;28;20028;-59
2022/03/16 02:27:49;;;;;;;81.32;46.55;;;;;;;24.01;54.67;102864.44;5073581;28;20025;-59
2022/03/16 02:30:15;;;;;;;79.78;47.67;;;;;;;24.01;54.87;102867.19;5072756;28;20376;-59
2022/03/16 02:32:41;;;;;;;74.28;44.78;;;;;;;24.01;54.53;102850.69;5073201;28;20057;-59
2022/03/16 02:35:06;;;;;;;76.13;47.10;;;;;;;24.01;55.29;102858.94;5073181;28;20453;-60
2022/03/16 02:37:36;;;;;;;79.32;45.75;;;;;;;24.01;54.97;102856.19;5073316;28;20055;-59
2022/03/16 02:40:02;;;;;;;77.13;46.10;;;;;;;24.01;54.50;102847.94;5073269;28;20035;-59
2022/03/16 02:42:27;;;;;;;77.20;46.00;;;;;;;24.05;55.32;102852.13;5072914;28;20028;-59
2022/03/16 02:44:52;;;;;;;78.93;44.58;;;;;;;24.05;55.24;102865.88;5073012;28;20070;-60
2022/03/16 02:47:18;;;;;;;72.55;44.17;;;;;;;24.05;54.99;102857.63;5072917;28;20066;-59
2022/03/16 02:49:43;;;;;;;80.13;45.60;;;;;;;24.05;54.74;102852.13;5072882;28;20383;-60
2022/03/16 02:52:09;;;;;;;76.55;44.20;;;;;;;24.04;55.57;102852.28;5072945;28;20459;-59
2022/03/16 02:54:34;;;;;;;79.20;46.28;;;;;;;24.08;55.33;102860.03;5072692;28;20028;-59
2022/03/16 02:57:00;;;;;;;79.90;46.60;;;;;;;24.06;56.02;102855.72;5072839;28;20070;-60
2022/03/16 02:59:25;;;;;;;75.95;44.17;;;;;;;24.09;55.77;102864.50;5072342;28;20051;-59
2022/03/16 03:01:51;;;;;;;75.53;45.83;;;;;;;24.08;56.36;102860.03;5072821;28;20027;-60
2022/03/16 03:04:16;;;;;;;72.28;42.47;;;;;;;24.09;56.75;102860.91;5072580;28;20024;-60
2022/03/16 03:06:41;;;;;;;78.90;46.72;;;;;;;24.09;57.29;102864.50;5072755;28;20116;-59
2022/03/16 03:09:07;;;;;;;80.47;45.33;;;;;;;24.07;56.88;102858.31;5072477;28;20028;-59
2022/03/16 03:11:32;;;;;;;80.97;46.90;;;;;;;24.09;56.70;102864.50;5072516;28;20028;-59
2022/03/16 03:13:57;;;;;;;77.90;45.08;;;;;;;24.05;56.78;102871.38;5072711;28;20063;-59
2022/03/16 03:16:23;;;;;;;75.95;45.80;;;;;;;24.08;56.68;102871.03;5072357;28;20027;-60
2022/03/16 03:18:48;;;;;;;74.15;46.53;;;;;;;24.09;56.90;102877.38;5072703;28;20032;-59
2022/03/16 03:21:13;;;;;;;79.75;46.17;;;;;;;24.09;56.47;102875.50;5072251;28;20020;-59
2022/03/16 03:23:38;;;;;;;77.10;45.58;;;;;;;24.04;56.97;102869.63;5072514;28;20464;-59
2022/03/16 03:26:04;;;;;;;76.43;44.50;;;;;;;24.09;56.92;102869.16;5072508;28;20094;-59
2022/03/16 03:28:29;;;;;;;79.30;44.08;;;;;;;24.08;57.05;102882.03;5071983;28;20108;-59
2022/03/16 03:30:54;;;;;;;79.50;47.50;;;;;;;23.98;55.67;102875.75;5072624;28;20471;-60
2022/03/16 03:33:19;;;;;;;75.93;44.83;;;;;;;24.02;54.97;102874.44;5072261;28;20054;-59
2022/03/16 03:35:45;;;;;;;74.05;44.35;;;;;;;23.93;54.65;102870.75;5072381;28;20472;-59
2022/03/16 03:38:11;;;;;;;81.78;48.00;;;;;;;24.00;55.15;102873.69;5072221;28;20064;-59
2022/03/16 03:40:36;;;;;;;77.35;45.40;;;;;;;23.92;54.87;102881.91;5072605;28;20354;-59
2022/03/16 03:43:01;;;;;;;81.25;45.67;;;;;;;23.93;54.21;102872.63;5072166;28;20036;-59
2022/03/16 03:45:26;;;;;;;78.90;45.05;;;;;;;23.95;53.95;102870.59;5072078;28;20031;-60
2022/03/16 03:47:52;;;;;;;73.63;44.67;;;;;;;23.93;53.44;102889.97;5070793;28;20032;-59
2022/03/16 03:50:17;;;;;;;75.78;44.55;;;;;;;24.01;53.48;102886.41;5071893;28;20365;-59
2022/03/16 03:52:42;;;;;;;76.53;45.58;;;;;;;23.99;53.92;102891.22;5072496;28;20032;-59
2022/03/16 03:55:08;;;;;;;77.75;45.72;;;;;;;23.95;53.84;102892.56;5071987;28;20036;-59
2022/03/16 03:57:33;;;;;;;76.55;44.40;;;;;;;23.94;53.54;102897.19;5072047;28;20021;-60
2022/03/16 03:59:58;;;;;;;74.60;44.10;;;;;;;23.96;53.89;102897.03;5070339;28;20103;-59
2022/03/16 04:02:24;;;;;;;78.13;44.78;;;;;;;24.06;53.26;102878.59;5071680;28;20051;-59
2022/03/16 04:04:49;;;;;;;76.40;44.22;;;;;;;24.03;53.59;102878.03;5072127;28;20413;-59
2022/03/16 04:07:14;;;;;;;75.97;45.17;;;;;;;24.02;54.16;102860.69;5072092;28;20028;-59
2022/03/16 04:09:40;;;;;;;74.55;44.40;;;;;;;24.04;54.18;102899.88;5072001;28;20036;-60
2022/03/16 04:12:05;;;;;;;76.50;45.75;;;;;;;24.03;54.18;102870.66;5072032;28;20427;-60
2022/03/16 04:14:31;;;;;;;73.03;45.42;;;;;;;23.97;53.30;102874.91;5071889;28;20040;-59
2022/03/16 04:16:56;;;;;;;74.03;43.72;;;;;;;24.03;53.59;102867.91;5071882;28;20024;-60
2022/03/16 04:19:21;;;;;;;71.97;44.50;;;;;;;24.03;52.92;102862.41;5071750;28;20057;-60
2022/03/16 04:21:46;;;;;;;74.20;44.58;;;;;;;24.08;53.40;102865.53;5072049;28;20379;-59
2022/03/16 04:24:13;;;;;;;74.18;44.30;;;;;;;24.07;53.53;102866.56;5071785;28;20026;-60
2022/03/16 04:26:38;;;;;;;76.15;43.47;;;;;;;24.12;53.28;102864.19;5070599;28;20058;-60
2022/03/16 04:29:03;;;;;;;76.47;44.08;;;;;;;24.08;53.18;102871.03;5071304;28;20457;-59
2022/03/16 04:31:29;;;;;;;69.78;41.95;;;;;;;24.08;52.94;102876.53;5071327;28;20051;-59
2022/03/16 04:33:55;;;;;;;76.25;45.03;;;;;;;24.10;53.04;102868.97;5071996;28;20052;-59
2022/03/16 04:36:20;;;;;;;74.25;42.92;;;;;;;24.11;53.37;102876.19;5071491;28;20056;-59
2022/03/16 04:38:46;;;;;;;79.50;45.08;;;;;;;24.13;53.41;102879.66;5071909;28;20048;-60
2022/03/16 04:41:11;;;;;;;73.22;43.70;;;;;;;24.13;53.56;102876.03;5071514;28;20021;-59
2022/03/16 04:43:36;;;;;;;74.75;43.70;;;;;;;24.09;53.16;102883.75;5073083;28;20113;-59
2022/03/16 04:46:01;;;;;;;78.40;44.75;;;;;;;24.06;53.76;102889.56;5075486;28;20024;-60
2022/03/16 04:48:27;;;;;;;74.18;43.83;;;;;;;24.07;52.99;102890.44;5075094;28;20042;-59
2022/03/16 04:50:52;;;;;;;80.38;45.85;;;;;;;24.08;53.38;102884.78;5075151;28;20043;-60
2022/03/16 04:53:17;;;;;;;73.18;42.63;;;;;;;24.13;53.46;102885.16;5075076;28;20051;-60
2022/03/16 04:55:43;;;;;;;75.88;44.08;;;;;;;24.08;53.59;102892.16;5075263;28;20033;-59
2022/03/16 04:58:09;;;;;;;72.05;42.17;;;;;;;24.14;54.11;102897.84;5074879;28;20021;-60
2022/03/16 05:00:35;;;;;;;70.03;42.90;;;;;;;24.13;53.31;102904.38;5074973;28;20024;-60
2022/03/16 05:03:01;;;;;;;71.70;41.15;;;;;;;24.27;53.58;102903.78;5074966;28;20028;-59
2022/03/16 05:05:26;;;;;;;72.20;43.13;;;;;;;24.36;53.51;102909.41;5074819;28;20418;-60
2022/03/16 05:07:51;;;;;;;80.10;45.50;;;;;;;24.39;53.02;102914.56;5074992;28;20020;-59
2022/03/16 05:10:16;;;;;;;74.93;45.00;;;;;;;24.49;53.48;102912.56;5074689;28;20032;-60
2022/03/16 05:12:44;;;;;;;74.25;45.63;;;;;;;24.49;53.43;102907.06;5074815;28;20025;-59
2022/03/16 05:15:17;;;;;;;82.57;46.28;;;;;;;24.58;53.36;102906.09;5074898;28;20031;-59
2022/03/16 05:17:45;;;;;;;73.32;42.78;;;;;;;24.56;53.46;102902.63;5074889;28;20024;-60
2022/03/16 05:20:11;;;;;;;78.40;44.95;;;;;;;24.59;53.45;102918.81;5074677;28;20476;-60
2022/03/16 05:22:44;;;;;;;72.40;42.65;;;;;;;24.64;53.16;102915.56;5074578;28;20066;-60
2022/03/16 05:25:15;;;;;;;67.72;42.22;;;;;;;24.66;52.61;102919.88;5074402;28;20525;-59
2022/03/16 05:27:41;;;;;;;73.57;43.83;;;;;;;24.65;52.49;102920.91;5074344;28;20047;-60
2022/03/16 05:30:07;;;;;;;74.95;43.53;;;;;;;24.63;52.38;102922.94;5074411;28;20468;-60
2022/03/16 05:32:33;;;;;;;72.28;42.67;;;;;;;24.66;52.82;102917.13;5074678;28;20271;-59
2022/03/16 05:34:58;;;;;;;80.30;44.58;;;;;;;24.71;52.95;102920.25;5074406;28;20099;-60
2022/03/16 05:37:24;;;;;;;72.20;43.03;;;;;;;24.75;53.31;102927.16;5074228;28;20069;-60
2022/03/16 05:39:49;;;;;;;70.20;40.45;;;;;;;24.72;53.21;102927.47;5074767;28;20104;-59
2022/03/16 05:42:14;;;;;;;74.40;43.65;;;;;;;24.76;53.92;102931.63;5072910;28;20032;-60
2022/03/16 05:44:39;;;;;;;67.75;41.40;;;;;;;24.78;54.06;102928.69;5074336;28;20059;-59
2022/03/16 05:47:05;;;;;;;70.35;41.42;;;;;;;24.77;53.64;102929.72;5072825;28;20460;-60
2022/03/16 05:49:30;;;;;;;71.20;42.70;;;;;;;24.80;53.82;102933.00;5073927;28;20036;-60
2022/03/16 05:51:56;;;;;;;70.95;41.83;;;;;;;24.72;54.22;102935.72;5074154;28;20070;-59
2022/03/16 05:54:21;;;;;;;75.97;44.33;;;;;;;24.76;54.68;102931.63;5073389;28;20021;-60
2022/03/16 05:56:46;;;;;;;77.95;43.25;;;;;;;24.82;54.50;102941.97;5073566;28;20029;-60
2022/03/16 05:59:11;;;;;;;74.43;44.10;;;;;;;24.79;54.70;102947.78;5073600;28;20081;-59
2022/03/16 06:01:37;;;;;;;72.65;41.95;;;;;;;24.66;53.00;102957.50;5073481;28;20074;-60
2022/03/16 06:04:02;;;;;;;73.28;42.55;;;;;;;24.63;52.85;102969.72;5073983;28;20020;-59
2022/03/16 06:06:29;;;;;;;72.80;42.70;;;;;;;24.76;53.79;102961.88;5073673;28;20025;-59
2022/03/16 06:08:54;;;;;;;70.03;41.83;;;;;;;24.51;52.00;102962.75;5073787;28;20035;-59
2022/03/16 06:11:20;;;;;;;72.28;40.15;;;;;;;24.60;52.35;102967.28;5073795;28;20047;-59
2022/03/16 06:13:45;;;;;;;73.38;42.70;;;;;;;24.59;50.73;102969.19;5073717;28;20031;-60
2022/03/16 06:16:10;;;;;;;73.28;41.80;;;;;;;24.55;50.81;102972.41;5073593;28;20032;-60
2022/03/16 06:18:35;;;;;;;67.22;41.50;;;;;;;24.54;50.64;102982.56;5073552;28;20521;-59
2022/03/16 06:21:01;;;;;;;65.82;40.40;;;;;;;24.58;49.31;102980.34;5073459;28;20027;-60
2022/03/16 06:23:27;;;;;;;66.32;39.78;;;;;;;24.66;49.60;102980.38;5073315;28;20529;-59
2022/03/16 06:25:52;;;;;;;69.13;39.53;;;;;;;24.56;49.06;102986.00;5073470;28;20028;-60
2022/03/16 06:28:17;;;;;;;66.68;40.50;;;;;;;24.75;50.37;102973.06;5072994;28;20491;-60
2022/03/16 06:30:42;;;;;;;67.18;40.22;;;;;;;24.68;49.32;102972.81;5073340;28;20024;-59
2022/03/16 06:33:08;;;;;;;66.13;39.90;;;;;;;24.77;49.90;102969.09;5073025;28;20051;-59
2022/03/16 06:35:33;;;;;;;65.78;40.50;;;;;;;24.69;49.34;102974.56;5073202;28;20032;-60
2022/03/16 06:37:59;;;;;;;69.65;40.65;;;;;;;24.58;48.29;102978.44;5073241;28;20024;-59
2022/03/16 06:40:24;;;;;;;67.57;40.22;;;;;;;24.64;49.50;102987.06;5072978;28;20013;-59
2022/03/16 06:42:52;;;;;;;75.95;42.92;;;;;;;24.58;49.63;102985.84;5073237;28;20024;-60
2022/03/16 06:45:19;;;;;;;68.85;42.03;;;;;;;24.59;49.76;102990.31;5073130;28;20017;-59
2022/03/16 06:47:44;;;;;;;70.55;40.50;;;;;;;24.73;49.61;102991.63;5073035;28;20024;-59
2022/03/16 06:50:10;;;;;;;69.57;41.42;;;;;;;24.75;48.84;102990.41;5072901;28;20070;-60
2022/03/16 06:52:35;;;;;;;67.85;40.53;;;;;;;24.77;49.35;102998.50;5072920;28;20081;-59
2022/03/16 06:55:01;;;;;;;69.53;39.13;;;;;;;24.86;50.56;103003.91;5072840;28;20473;-60
2022/03/16 06:57:26;;;;;;;69.00;39.72;;;;;;;24.80;49.69;102999.03;5072519;28;20107;-60
2022/03/16 06:59:51;;;;;;;69.80;40.85;;;;;;;24.71;49.07;103000.03;5072573;28;20078;-59
2022/03/16 07:02:17;;;;;;;70.90;41.60;;;;;;;24.78;49.12;102990.09;5072630;28;20021;-60
2022/03/16 07:04:42;;;;;;;69.20;39.40;;;;;;;24.84;50.05;102989.41;5072753;28;20027;-60
2022/03/16 07:07:07;;;;;;;67.60;41.92;;;;;;;24.78;49.80;102992.84;5071039;28;20031;-59
2022/03/16 07:09:33;;;;;;;62.25;38.80;;;;;;;24.86;49.72;102995.66;5072506;28;20028;-60
2022/03/16 07:11:58;;;;;;;67.78;39.90;;;;;;;24.83;49.45;102995.94;5072707;28;20021;-59
2022/03/16 07:14:33;;;;;;;67.78;40.47;;;;;;;24.75;50.13;103006.06;5072364;28;20042;-59
2022/03/16 07:16:59;;;;;;;68.60;41.20;;;;;;;24.80;49.56;103007.28;5072536;28;20103;-59
2022/03/16 07:19:24;;;;;;;65.95;39.17;;;;;;;24.82;50.22;103004.38;5072347;28;20024;-60
2022/03/16 07:21:50;;;;;;;65.70;40.58;;;;;;;24.84;49.87;103005.94;5072605;28;20228;-59
2022/03/16 07:24:15;;;;;;;66.57;39.67;;;;;;;24.85;49.30;103015.03;5072617;28;20017;-60
2022/03/16 07:26:40;;;;;;;66.05;41.08;;;;;;;24.84;50.00;103011.44;5072494;28;20352;-59
2022/03/16 07:29:06;;;;;;;63.70;38.92;;;;;;;24.86;50.05;103023.16;5072003;28;20033;-60
2022/03/16 07:31:32;;;;;;;68.18;41.17;;;;;;;24.89;49.00;103025.59;5071802;28;20088;-60
2022/03/16 07:33:57;;;;;;;68.03;39.42;;;;;;;24.92;50.82;103034.53;5072508;28;20476;-59
2022/03/16 07:36:23;;;;;;;67.97;40.20;;;;;;;24.75;49.32;103034.44;5072141;28;20063;-60
2022/03/16 07:38:48;;;;;;;64.70;37.80;;;;;;;24.82;50.31;103043.75;5072494;28;20051;-60
2022/03/16 07:41:15;;;;;;;64.30;38.92;;;;;;;24.86;51.38;103041.56;5072091;28;20104;-60
2022/03/16 07:43:41;;;;;;;61.78;38.78;;;;;;;24.84;50.45;103044.44;5072355;28;20020;-60
2022/03/16 07:46:06;;;;;;;63.67;38.55;;;;;;;24.80;49.56;103045.81;5072585;28;20460;-60
2022/03/16 07:48:34;;;;;;;66.10;40.22;;;;;;;24.88;51.17;103036.75;5072033;28;20025;-59
2022/03/16 07:50:59;;;;;;;63.35;37.30;;;;;;;24.88;49.79;103029.38;5072197;28;20251;-59
2022/03/16 07:53:25;;;;;;;63.35;37.70;;;;;;;24.85;51.57;103035.16;5072068;28;20456;-59
2022/03/16 07:55:55;;;;;;;68.35;38.97;;;;;;;24.76;49.60;103036.16;5072338;28;20024;-60
2022/03/16 07:58:20;;;;;;;64.00;37.67;;;;;;;24.85;50.82;103028.81;5071714;28;20028;-60
2022/03/16 08:00:45;;;;;;;62.35;38.33;;;;;;;24.95;49.54;103023.19;5070611;28;20031;-60
2022/03/16 08:03:12;;;;;;;67.20;38.88;;;;;;;24.92;51.29;103029.03;5071934;28;20032;-59
2022/03/16 08:05:39;;;;;;;64.95;38.80;;;;;;;24.94;51.09;103037.97;5072029;28;20028;-60
2022/03/16 08:08:05;;;;;;;66.43;37.65;;;;;;;24.97;51.52;103026.66;5072160;28;20020;-59
2022/03/16 08:10:30;;;;;;;68.60;38.58;;;;;;;24.95;51.24;103034.22;5071817;28;20028;-59
2022/03/16 08:12:55;;;;;;;62.60;38.00;;;;;;;24.99;51.33;103038.34;5071956;28;20032;-60
2022/03/16 08:15:20;;;;;;;64.72;38.63;;;;;;;24.94;52.30;103033.34;5071838;28;20025;-60
2022/03/16 08:17:46;;;;;;;62.65;37.35;;;;;;;24.96;51.61;103042.28;5072113;28;20056;-60
2022/03/16 08:20:11;;;;;;;63.65;36.83;;;;;;;24.99;51.79;103054.88;5075708;28;20050;-60
2022/03/16 08:22:37;;;;;;;64.82;37.42;;;;;;;24.96;51.64;103060.69;5075780;28;20472;-59
2022/03/16 08:25:07;;;;;;;63.47;37.30;;;;;;;24.88;51.84;103069.78;5075728;28;20352;-60
2022/03/16 08:27:34;;;;;;;64.18;37.53;;;;;;;24.98;52.34;103061.41;5075120;28;20052;-60
2022/03/16 08:29:59;;;;;;;61.67;35.95;;;;;;;24.98;52.76;103066.91;5075480;28;20029;-60
2022/03/16 08:32:25;;;;;;;65.78;38.20;;;;;;;24.98;51.56;103066.91;5075311;28;20052;-60
2022/03/16 08:34:50;;;;;;;60.00;35.50;;;;;;;24.96;51.62;103071.69;5071154;28;20043;-59
2022/03/16 08:37:17;;;;;;;61.88;36.53;;;;;;;24.80;52.56;103069.69;5063220;28;20028;-60
2022/03/16 08:39:44;;;;;;;64.30;37.40;;;;;;;24.79;50.81;103068.84;5055186;28;20125;-60
2022/03/16 08:42:11;;;;;;;63.05;38.30;;;;;;;24.80;49.95;103062.31;5054492;28;20527;-59
2022/03/16 08:44:36;;;;;;;62.15;37.45;;;;;;;24.79;49.92;103063.34;5055454;28;20029;-60
2022/03/16 08:47:02;;;;;;;61.58;35.92;;;;;;;24.78;49.40;103063.50;5055052;28;20498;-60
2022/03/16 08:49:29;;;;;;;60.20;36.05;;;;;;;24.71;48.62;103065.19;5055013;28;20033;-59
2022/03/16 08:51:55;;;;;;;64.50;37.47;;;;;;;24.85;50.04;103061.81;5055409;28;20099;-60
2022/03/16 08:54:21;;;;;;;58.20;34.70;;;;;;;24.85;49.19;103068.19;5055618;28;20108;-60
2022/03/16 08:56:46;;;;;;;62.08;36.97;;;;;;;24.83;48.44;103058.38;5055323;28;20353;-59
2022/03/16 08:59:11;;;;;;;63.63;37.55;;;;;;;24.79;47.68;103063.34;5073328;28;20028;-61
2022/03/16 09:01:37;;;;;;;62.22;36.60;;;;;;;24.87;47.47;103071.66;5075040;28;20021;-59
2022/03/16 09:04:03;;;;;;;65.70;36.88;;;;;;;24.74;48.24;103071.22;5075149;28;20029;-59
2022/03/16 09:06:29;;;;;;;67.28;37.50;;;;;;;24.81;47.79;103075.03;5073334;28;20073;-60
2022/03/16 09:08:54;;;;;;;59.45;36.05;;;;;;;24.79;48.18;103068.84;5074388;28;20391;-60
2022/03/16 09:11:20;;;;;;;62.83;36.10;;;;;;;24.76;47.65;103074.66;5074649;28;20393;-60
2022/03/16 09:13:47;;;;;;;60.25;35.05;;;;;;;24.85;48.29;103086.59;5074923;28;20037;-60
2022/03/16 09:16:12;;;;;;;57.35;35.50;;;;;;;24.78;48.83;103086.38;5074693;28;20400;-59
2022/03/16 09:18:38;;;;;;;60.70;35.80;;;;;;;24.71;48.27;103085.31;5074779;28;20111;-60
2022/03/16 09:21:03;;;;;;;62.25;36.20;;;;;;;24.89;48.31;103091.63;5074714;28;20044;-60
2022/03/16 09:23:31;;;;;;;59.75;35.20;;;;;;;24.85;49.62;103089.34;5074793;28;20443;-60
2022/03/16 09:26:00;;;;;;;58.65;36.95;;;;;;;24.88;49.32;103089.91;5074707;28;20060;-59
2022/03/16 09:28:25;;;;;;;60.03;35.67;;;;;;;24.96;49.15;103096.47;5074450;28;20052;-60
2022/03/16 09:30:51;;;;;;;65.15;37.45;;;;;;;24.93;48.45;103091.28;5073609;28;20098;-60
2022/03/16 09:33:17;;;;;;;60.65;35.92;;;;;;;24.92;48.82;103089.56;5074246;28;20384;-59
2022/03/16 09:35:43;;;;;;;65.10;36.40;;;;;;;24.94;50.33;103088.38;5074801;28;20020;-60
2022/03/16 09:38:08;;;;;;;66.90;37.78;;;;;;;24.96;48.52;103085.47;5074401;28;20384;-59
2022/03/16 09:40:34;;;;;;;63.95;36.70;;;;;;;24.89;49.00;103080.63;5074623;28;20382;-60
2022/03/16 09:42:59;;;;;;;61.08;35.55;;;;;;;24.90;48.31;103082.34;5074032;28;20020;-60
2022/03/16 09:45:29;;;;;;;62.05;37.13;;;;;;;25.00;49.76;103087.75;5072759;28;20062;-59
2022/03/16 09:47:54;;;;;;;62.50;38.00;;;;;;;24.87;48.61;103088.19;5073373;28;20036;-60
2022/03/16 09:50:20;;;;;;;65.38;37.25;;;;;;;24.88;48.04;103095.41;5074688;28;20032;-60
2022/03/16 09:52:47;;;;;;;67.72;39.22;;;;;;;24.88;48.22;103100.03;5074214;28;20024;-59
2022/03/16 09:55:14;;;;;;;64.50;36.70;;;;;;;24.98;50.45;103098.03;5073852;28;20039;-60
2022/03/16 09:57:39;;;;;;;61.90;36.60;;;;;;;24.93;49.67;103096.78;5073806;28;20055;-60
2022/03/16 10:00:06;;;;;;;62.95;37.78;;;;;;;24.96;50.03;103096.47;5074041;28;20472;-59
2022/03/16 10:02:31;;;;;;;62.83;37.20;;;;;;;24.99;49.37;103101.66;5074165;28;20108;-60
2022/03/16 10:04:57;;;;;;;65.97;37.67;;;;;;;24.96;50.03;103096.47;5074154;28;20456;-60
2022/03/16 10:07:29;;;;;;;59.42;36.08;;;;;;;25.01;50.97;103110.63;5073681;28;20028;-60
2022/03/16 10:15:23;;;;;;;63.03;36.40;;;;;;;24.90;49.23;103115.38;5073471;28;20090;-59
2022/03/16 10:17:57;;;;;;;65.57;36.67;;;;;;;24.86;50.07;103113.09;5073760;28;20036;-60
2022/03/16 10:20:30;;;;;;;64.10;36.47;;;;;;;24.82;49.95;103129.03;5073401;28;20016;-60
2022/03/16 10:23:02;;;;;;;61.15;36.53;;;;;;;24.95;50.35;103136.88;5073570;28;20055;-59
2022/03/16 10:25:30;;;;;;;61.63;36.35;;;;;;;24.80;49.07;103125.59;5073280;28;20028;-60
2022/03/16 10:28:19;;;;;;;58.53;33.70;;;;;;;24.90;50.12;103126.38;5073288;28;20040;-60
2022/03/16 10:31:02;;;;;;;61.20;34.58;;;;;;;24.94;50.67;103126.91;5073382;28;20020;-60
2022/03/16 10:33:30;;;;;;;59.67;35.53;;;;;;;24.98;50.34;103127.44;5073126;28;20047;-59
2022/03/16 10:35:56;;;;;;;58.40;35.20;;;;;;;24.94;50.61;103126.91;5073367;28;20151;-60
2022/03/16 10:38:22;;;;;;;61.60;33.50;;;;;;;24.96;50.87;103130.34;5073104;28;20419;-60
2022/03/16 10:40:48;;;;;;;58.55;33.35;;;;;;;24.96;49.96;103135.00;5072839;28;20044;-60
2022/03/16 10:49:01;;;;;;;59.63;34.67;;;;;;;24.98;51.38;103143.94;5072872;28;20043;-59
2022/03/16 10:51:26;;;;;;;56.45;33.35;;;;;;;24.89;51.15;103141.16;5071371;28;20078;-60
2022/03/16 10:53:53;;;;;;;62.25;34.47;;;;;;;24.88;52.69;103131.16;5072994;28;20491;-60
2022/03/16 10:56:19;;;;;;;56.80;32.40;;;;;;;25.00;52.84;103130.91;5072728;28;20027;-60
2022/03/16 10:58:46;;;;;;;55.15;32.40;;;;;;;25.08;52.24;103133.75;5072564;28;20159;-60
2022/03/16 11:01:12;;;;;;;63.28;33.97;;;;;;;25.03;52.00;103137.00;5072300;28;20035;-59
2022/03/16 11:03:41;;;;;;;52.72;33.58;;;;;;;25.03;52.35;103130.63;5072767;28;20387;-60
2022/03/16 11:06:08;;;;;;;62.20;35.80;;;;;;;24.87;51.61;103131.34;5072783;28;20016;-60
2022/03/16 11:08:37;;;;;;;57.60;33.70;;;;;;;24.88;49.92;103150.44;5072606;28;20024;-60
2022/03/16 11:13:28;;;;;;;59.80;33.67;;;;;;;24.86;51.25;103132.38;5072578;28;20020;-59
2022/03/16 11:13:50;;;;;;;54.22;31.55;;;;;;;24.89;49.85;103134.78;5072674;28;20159;-60
2022/03/16 11:16:20;;;;;;;55.97;32.15;;;;;;;24.82;49.53;103131.78;5072459;28;20535;-59